Thunder radar more information blitzortung!


Löydät sääaseman tiedot myös:

European Weather Network

Finland Weather Exchange

Weather Underground

AWEKAS



Weather Underground säähistoriasivu

Päivittäin yhteenveto Elokuu 25, 2017 Yksiköt:  Metriset    Englantilaiset   Molemmat
« Edellinen Päivä
Seuraava Päivä »
Päivittäin Viikoittain Kuukausittain Vuosittain Mukautettu
  Korkea: Matala: Keskiarvo:
Lämpötila: -17.8 °C -15.9 °C -13 °C
Kastepiste: -17.8 °C -16.3 °C -14.4 °C
Kosteus: Humidity % 68 % 84 %
Tuulen nopeus: 0 km/h 0 km/h 2.7 km/h
Tuulenpuuska: 0 km/h - -
Tuuli:- - WSW
Ilmanpaine: 0 hPa 33958.2 hPa -
Sade: 116.84 mm    
Historical Graphs
 
 
Taulukkotiedot Elokuu 25, 2017
Aika Lämpötila Kastepiste Ilmanpaine Tuuli Tuulen nopeus Tuulenpuuska Kosteus Sademäärä (tunneittain)
-17.8 °C -17.8 °C 0 hPa Calm     Humidity % 0 mm
00:00 -14.8 °C -15.4 °C 34049.6 hPa Calm     93 % 0 mm
00:15 -14.9 °C -15.5 °C 34049.6 hPa Calm     93 % 0 mm
00:30 -15 °C -15.6 °C 34049.6 hPa Calm     93 % 0 mm
00:45 -15 °C -15.5 °C 34049.6 hPa Calm     94 % 0 mm
01:00 -14.9 °C -15.3 °C 34039.5 hPa Calm     95 % 0 mm
01:15 -14.8 °C -15.3 °C 34039.5 hPa Calm     95 % 0 mm
01:30 -14.7 °C -15.1 °C 34039.5 hPa Calm     95 % 0 mm
01:45 -14.8 °C -15.2 °C 34029.3 hPa Calm     94 % 0 mm
02:00 -14.8 °C -15.3 °C 34029.3 hPa Calm     94 % 0 mm
02:15 -14.9 °C -15.4 °C 34029.3 hPa Calm     94 % 0 mm
02:30 -15.1 °C -15.6 °C 34029.3 hPa Calm     94 % 0 mm
02:45 -15.2 °C -15.7 °C 34015.8 hPa Calm     94 % 0 mm
03:00 -15.4 °C -15.8 °C 34015.8 hPa Calm     94 % 0 mm
03:15 -15.2 °C -15.5 °C 34015.8 hPa Calm     96 % 0 mm
03:30 -14.7 °C -15.1 °C 34015.8 hPa Calm   2.6 km/h 96 % 0 mm
03:45 -14.4 °C -14.8 °C 34015.8 hPa Calm   2.6 km/h 96 % 0 mm
04:00 -14.3 °C -14.7 °C 34015.8 hPa Calm     95 % 0 mm
04:15 -14.5 °C -14.9 °C 34015.8 hPa Calm     94 % 0 mm
04:30 -14.8 °C -15.4 °C 34005.6 hPa Calm     93 % 0 mm
04:45 -15 °C -15.5 °C 34005.6 hPa Calm     94 % 0 mm
05:00 -15.2 °C -15.7 °C 34005.6 hPa Calm     94 % 0 mm
05:15 -15.4 °C -15.9 °C 34005.6 hPa Calm     94 % 0 mm
05:30 -15.4 °C -15.8 °C 33992.1 hPa Calm     95 % 0 mm
06:00 -15.5 °C -15.9 °C 33992.1 hPa Calm     95 % 0 mm
06:15 -15.7 °C -16.2 °C 33992.1 hPa Calm     95 % 0 mm
06:30 -15.8 °C -16.2 °C 33992.1 hPa Calm     95 % 0 mm
06:45 -15.9 °C -16.3 °C 33992.1 hPa Calm     95 % 0 mm
07:00 -15.8 °C -16.2 °C 33992.1 hPa Calm     96 % 0 mm
07:15 -15.8 °C -16.1 °C 33992.1 hPa Calm     96 % 0 mm
07:30 -15.6 °C -15.9 °C 33992.1 hPa Calm     96 % 0 mm
07:45 -15.4 °C -15.7 °C 33992.1 hPa Calm     97 % 0 mm
08:00 -14.9 °C -15.2 °C 33992.1 hPa Calm   5.1 km/h 97 % 0 mm
08:15 -14.3 °C -14.6 °C 33981.9 hPa SW 2.6 km/h 10.3 km/h 97 % 0 mm
08:30 -13.9 °C -14.2 °C 33981.9 hPa SSW 2.6 km/h 10.3 km/h 97 % 0 mm
08:45 -13.6 °C -13.8 °C 33981.9 hPa Calm   12.9 km/h 97 % 0 mm
09:00 -13 °C -13.6 °C 33981.9 hPa SW 5.1 km/h 23.3 km/h 93 % 0 mm
09:15 -12.6 °C -13.6 °C 33981.9 hPa SW 2.6 km/h 18.2 km/h 89 % 0 mm
09:30 -12.2 °C -13.6 °C 33981.9 hPa WNW 7.7 km/h 23.3 km/h 85 % 0 mm
09:45 -11.9 °C -13.6 °C 33981.9 hPa WNW 10.3 km/h 36.2 km/h 82 % 0 mm
10:00 -11.8 °C -13.6 °C 33981.9 hPa NW 5.1 km/h 15.6 km/h 80 % 0 mm
10:15 -11.8 °C -13.9 °C 33981.9 hPa WNW 5.1 km/h 28.5 km/h 77 % 0 mm
10:30 -11.6 °C -13.6 °C 33971.7 hPa WSW 2.6 km/h 12.9 km/h 79 % 0 mm
10:45 -11.3 °C -13.8 °C 33981.9 hPa WNW 7.7 km/h 23.3 km/h 74 % 0 mm
11:00 -11 °C -13.8 °C 33971.7 hPa West 7.7 km/h 28.5 km/h 71 % 0 mm
11:15 -10.7 °C -13.6 °C 33981.9 hPa WNW 7.7 km/h 25.9 km/h 70 % 0 mm
11:30 -10.6 °C -13.8 °C 33981.9 hPa West 10.3 km/h 25.9 km/h 68 % 0 mm
11:45 -11.3 °C -13.9 °C 33992.1 hPa West 5.1 km/h 20.8 km/h 73 % 0 mm
12:00 -11.2 °C -13.8 °C 33981.9 hPa West 7.7 km/h 25.9 km/h 73 % 0 mm
12:15 -10.9 °C -13.8 °C 33992.1 hPa WNW 5.1 km/h 23.3 km/h 71 % 0 mm
12:30 -11.2 °C -13.9 °C 33992.1 hPa WNW 7.7 km/h 25.9 km/h 72 % 0 mm
12:45 -11.2 °C -14.1 °C 33992.1 hPa West 5.1 km/h 23.3 km/h 71 % 0 mm
13:00 -11.4 °C -13.9 °C 33992.1 hPa NW 5.1 km/h 23.3 km/h 74 % 0 mm
13:15 -11.2 °C -13.9 °C 33992.1 hPa West 7.7 km/h 18.2 km/h 72 % 0 mm
13:30 -11.2 °C -13.7 °C 33992.1 hPa WNW 5.1 km/h 18.2 km/h 74 % 0 mm
13:45 -11.2 °C -13.8 °C 33992.1 hPa West 5.1 km/h 20.8 km/h 73 % 0 mm
14:00 -11 °C -13.9 °C 34005.6 hPa West 7.7 km/h 20.8 km/h 70 % 0 mm
14:15 -11.1 °C -14.2 °C 34005.6 hPa West 7.7 km/h 15.6 km/h 69 % 0 mm
14:30 -11.2 °C -13.9 °C 34005.6 hPa WNW 2.6 km/h 12.9 km/h 72 % 0 mm
14:45 -11.3 °C -14 °C 34005.6 hPa WSW 5.1 km/h 18.2 km/h 72 % 0 mm
15:00 -11.2 °C -14.1 °C 34005.6 hPa WNW 5.1 km/h 23.3 km/h 71 % 0 mm
15:15 -11.3 °C -13.9 °C 34005.6 hPa WNW 5.1 km/h 20.8 km/h 73 % 0 mm
15:30 -11.3 °C -14.1 °C 34005.6 hPa NW 5.1 km/h 15.6 km/h 72 % 0 mm
15:45 -11.5 °C -14.1 °C 34015.8 hPa WNW 5.1 km/h 33.6 km/h 73 % 0 mm
16:00 -11.5 °C -13.9 °C 34015.8 hPa WNW 2.6 km/h 10.3 km/h 74 % 0 mm
16:15 -11.6 °C -13.9 °C 34015.8 hPa WNW 5.1 km/h 12.9 km/h 75 % 0 mm
16:30 -11.3 °C -13.9 °C 34005.6 hPa WSW 5.1 km/h 15.6 km/h 73 % 0 mm
16:45 -11.3 °C -13.8 °C 34005.6 hPa SSW 2.6 km/h 20.8 km/h 74 % 0 mm
17:00 -11.2 °C -13.8 °C 34005.6 hPa SW 5.1 km/h 12.9 km/h 73 % 0 mm
17:15 -11.3 °C -13.8 °C 34005.6 hPa Calm   7.7 km/h 74 % 0 mm
17:30 -10.8 °C -13.4 °C 34005.6 hPa South 5.1 km/h 23.3 km/h 73 % 0 mm
17:45 -10.7 °C -13.7 °C 34005.6 hPa SW 5.1 km/h 12.9 km/h 70 % 0 mm
18:00 -11 °C -13.7 °C 33992.1 hPa SSE 2.6 km/h 10.3 km/h 72 % 0 mm
18:15 -10.9 °C -13.5 °C 33992.1 hPa SSW 2.6 km/h 10.3 km/h 73 % 0 mm
18:30 -10.9 °C -13.3 °C 33992.1 hPa Calm     75 % 0 mm
18:45 -10.9 °C -13.5 °C 33992.1 hPa West 2.6 km/h 10.3 km/h 73 % 0 mm
19:00 -10.9 °C -13.6 °C 33992.1 hPa WSW 2.6 km/h 12.9 km/h 73 % 0 mm
19:15 -11 °C -13.5 °C 33992.1 hPa WSW 2.6 km/h 18.2 km/h 74 % 0 mm
19:30 -11.2 °C -13.4 °C 33992.1 hPa SW 2.6 km/h 10.3 km/h 77 % 0 mm
19:45 -11.3 °C -13.3 °C 33992.1 hPa SSW 2.6 km/h 10.3 km/h 79 % 0 mm
20:00 -11.5 °C -13.2 °C 33981.9 hPa Calm   7.7 km/h 82 % 0 mm
20:15 -11.6 °C -13.2 °C 33981.9 hPa Calm   2.6 km/h 83 % 0 mm
20:30 -11.9 °C -12.9 °C 33992.1 hPa Calm   2.6 km/h 89 % 33.02 mm
20:45 -12.3 °C -13.1 °C 33992.1 hPa SSW 2.6 km/h 15.6 km/h 91 % 58.42 mm
21:00 -12.7 °C -13.5 °C 33981.9 hPa SSW 7.7 km/h 23.3 km/h 91 % 109.22 mm
21:15 -12.8 °C -13.4 °C 33992.1 hPa SSW 5.1 km/h 15.6 km/h 93 % 109.22 mm
21:30 -12.9 °C -13.5 °C 33981.9 hPa SW 2.6 km/h 23.3 km/h 93 % 83.82 mm
21:45 -13 °C -13.6 °C 33981.9 hPa Calm   12.9 km/h 94 % 50.8 mm
22:00 -13.2 °C -13.7 °C 33981.9 hPa Calm   2.6 km/h 94 % 0 mm
22:30 -13.4 °C -13.8 °C 33971.7 hPa SSW 2.6 km/h 12.9 km/h 95 % 7.62 mm
22:45 -13.4 °C -13.9 °C 33971.7 hPa SSW 2.6 km/h 10.3 km/h 95 % 7.62 mm
23:00 -13.4 °C -13.9 °C 33958.2 hPa SSW 5.1 km/h 12.9 km/h 95 % 7.62 mm
23:15 -13.5 °C -13.9 °C 33958.2 hPa SSW 2.6 km/h 10.3 km/h 95 % 7.62 mm
23:30 -13.6 °C -14 °C 33958.2 hPa SSW 2.6 km/h 15.6 km/h 95 % 0 mm
23:45 -13.7 °C -14.1 °C 33958.2 hPa Calm   7.7 km/h 95 % 0 mm
Esan sääasema
Terveisin Weather Underground - 2.75 mb

Alkuperäinen skripti  Jim McMurry - jmcmurry@mwt.net Sovitettu myös templatelle  Wim van der Kuil - Leuven-Template.eu

Laitteet joita käytämme:

Sääasema
Davis VP2

Sääasemaohjelma
Cumulus

Sääaseman tietokone
Asus EeePC

Palveluntarjoaja
Suncomet

Davis VP2

Cumulus

Asus EeePC

Suncomet